sensor_id;sensor_type;location;lat;lon;timestamp;temperature;humidity
27707;DHT22;36332;51.384;0.040;2023-04-01T00:00:59;10.60;99.90
27707;DHT22;36332;51.384;0.040;2023-04-01T00:03:27;10.70;99.90
27707;DHT22;36332;51.384;0.040;2023-04-01T00:05:56;10.70;99.90
27707;DHT22;36332;51.384;0.040;2023-04-01T00:08:25;10.70;99.90
27707;DHT22;36332;51.384;0.040;2023-04-01T00:10:54;10.70;99.90
27707;DHT22;36332;51.384;0.040;2023-04-01T00:13:22;10.80;99.90
27707;DHT22;36332;51.384;0.040;2023-04-01T00:15:50;10.80;99.90
27707;DHT22;36332;51.384;0.040;2023-04-01T00:18:18;10.80;99.90
27707;DHT22;36332;51.384;0.040;2023-04-01T00:20:47;10.80;99.90
27707;DHT22;36332;51.384;0.040;2023-04-01T00:23:15;10.80;99.90
27707;DHT22;36332;51.384;0.040;2023-04-01T00:25:44;10.70;99.90
27707;DHT22;36332;51.384;0.040;2023-04-01T00:28:16;10.80;99.90
27707;DHT22;36332;51.384;0.040;2023-04-01T00:30:43;10.80;99.90
27707;DHT22;36332;51.384;0.040;2023-04-01T00:33:11;10.80;99.90
27707;DHT22;36332;51.384;0.040;2023-04-01T00:35:39;10.80;99.90
27707;DHT22;36332;51.384;0.040;2023-04-01T00:38:07;10.70;99.90
27707;DHT22;36332;51.384;0.040;2023-04-01T00:40:38;10.80;99.90
27707;DHT22;36332;51.384;0.040;2023-04-01T00:43:19;10.80;99.90
27707;DHT22;36332;51.384;0.040;2023-04-01T00:45:48;10.80;99.90
27707;DHT22;36332;51.384;0.040;2023-04-01T00:48:19;10.70;99.90
27707;DHT22;36332;51.384;0.040;2023-04-01T00:50:58;10.70;99.90
27707;DHT22;36332;51.384;0.040;2023-04-01T00:53:28;10.70;99.90
27707;DHT22;36332;51.384;0.040;2023-04-01T00:56:01;10.70;99.90
27707;DHT22;36332;51.384;0.040;2023-04-01T00:58:34;10.70;99.90
27707;DHT22;36332;51.384;0.040;2023-04-01T01:01:03;10.70;99.90
27707;DHT22;36332;51.384;0.040;2023-04-01T01:03:31;10.70;99.90
27707;DHT22;36332;51.384;0.040;2023-04-01T01:06:11;10.70;99.90
27707;DHT22;36332;51.384;0.040;2023-04-01T01:08:52;10.70;99.90
27707;DHT22;36332;51.384;0.040;2023-04-01T01:11:36;10.70;99.90
27707;DHT22;36332;51.384;0.040;2023-04-01T01:17:26;10.70;99.90
27707;DHT22;36332;51.384;0.040;2023-04-01T01:25:33;10.60;99.90
27707;DHT22;36332;51.384;0.040;2023-04-01T01:28:47;10.60;99.90
27707;DHT22;36332;51.384;0.040;2023-04-01T01:31:50;10.60;99.90
27707;DHT22;36332;51.384;0.040;2023-04-01T01:37:13;10.50;99.90
27707;DHT22;36332;51.384;0.040;2023-04-01T01:39:45;10.50;99.90
27707;DHT22;36332;51.384;0.040;2023-04-01T01:42:16;10.60;99.90
27707;DHT22;36332;51.384;0.040;2023-04-01T01:44:47;10.50;99.90
27707;DHT22;36332;51.384;0.040;2023-04-01T01:47:17;10.50;99.90
27707;DHT22;36332;51.384;0.040;2023-04-01T01:49:46;10.50;99.90
27707;DHT22;36332;51.384;0.040;2023-04-01T01:52:16;10.50;99.90
27707;DHT22;36332;51.384;0.040;2023-04-01T01:54:52;10.40;99.90
27707;DHT22;36332;51.384;0.040;2023-04-01T01:57:27;10.40;99.90
27707;DHT22;36332;51.384;0.040;2023-04-01T02:00:07;10.40;99.90
27707;DHT22;36332;51.384;0.040;2023-04-01T02:02:44;10.40;99.90
27707;DHT22;36332;51.384;0.040;2023-04-01T02:05:24;10.40;99.90
27707;DHT22;36332;51.384;0.040;2023-04-01T02:08:07;10.30;99.90
27707;DHT22;36332;51.384;0.040;2023-04-01T02:10:39;10.30;99.90
27707;DHT22;36332;51.384;0.040;2023-04-01T02:13:21;10.30;99.90
27707;DHT22;36332;51.384;0.040;2023-04-01T02:15:56;10.20;99.90
27707;DHT22;36332;51.384;0.040;2023-04-01T02:18:28;10.20;99.90
27707;DHT22;36332;51.384;0.040;2023-04-01T02:20:59;10.20;99.90
27707;DHT22;36332;51.384;0.040;2023-04-01T02:23:28;10.20;99.90
27707;DHT22;36332;51.384;0.040;2023-04-01T02:25:56;10.20;99.90
27707;DHT22;36332;51.384;0.040;2023-04-01T02:28:24;10.20;99.90
27707;DHT22;36332;51.384;0.040;2023-04-01T02:30:52;10.20;99.90
27707;DHT22;36332;51.384;0.040;2023-04-01T02:33:20;10.20;99.90
27707;DHT22;36332;51.384;0.040;2023-04-01T02:35:49;10.20;99.90
27707;DHT22;36332;51.384;0.040;2023-04-01T02:38:17;10.10;99.90
27707;DHT22;36332;51.384;0.040;2023-04-01T02:40:48;10.20;99.90
27707;DHT22;36332;51.384;0.040;2023-04-01T02:43:17;10.10;99.90
27707;DHT22;36332;51.384;0.040;2023-04-01T02:45:46;10.10;99.90
27707;DHT22;36332;51.384;0.040;2023-04-01T02:48:13;10.10;99.90
27707;DHT22;36332;51.384;0.040;2023-04-01T02:50:41;10.10;99.90
27707;DHT22;36332;51.384;0.040;2023-04-01T02:53:08;10.10;99.90
27707;DHT22;36332;51.384;0.040;2023-04-01T02:55:36;10.10;99.90
27707;DHT22;36332;51.384;0.040;2023-04-01T02:58:04;10.10;99.90
27707;DHT22;36332;51.384;0.040;2023-04-01T03:00:32;10.10;99.90
27707;DHT22;36332;51.384;0.040;2023-04-01T03:03:00;10.10;99.90
27707;DHT22;36332;51.384;0.040;2023-04-01T03:05:28;10.10;99.90
27707;DHT22;36332;51.384;0.040;2023-04-01T03:07:57;10.10;99.90
27707;DHT22;36332;51.384;0.040;2023-04-01T03:10:24;10.10;99.90
27707;DHT22;36332;51.384;0.040;2023-04-01T03:12:52;10.10;99.90
27707;DHT22;36332;51.384;0.040;2023-04-01T03:15:19;10.10;99.90
27707;DHT22;36332;51.384;0.040;2023-04-01T03:17:47;9.60;99.90
27707;DHT22;36332;51.384;0.040;2023-04-01T03:20:15;10.10;99.90
27707;DHT22;36332;51.384;0.040;2023-04-01T03:22:43;10.10;99.90
27707;DHT22;36332;51.384;0.040;2023-04-01T03:25:11;10.10;99.90
27707;DHT22;36332;51.384;0.040;2023-04-01T03:27:39;10.00;99.90
27707;DHT22;36332;51.384;0.040;2023-04-01T03:30:09;10.10;99.90
27707;DHT22;36332;51.384;0.040;2023-04-01T03:32:45;10.10;99.90
27707;DHT22;36332;51.384;0.040;2023-04-01T03:35:13;10.10;99.90
27707;DHT22;36332;51.384;0.040;2023-04-01T03:37:41;10.00;99.90
27707;DHT22;36332;51.384;0.040;2023-04-01T03:40:09;10.00;99.90
27707;DHT22;36332;51.384;0.040;2023-04-01T03:42:37;10.00;99.90
27707;DHT22;36332;51.384;0.040;2023-04-01T03:45:06;10.00;99.90
27707;DHT22;36332;51.384;0.040;2023-04-01T03:47:34;10.00;99.90
27707;DHT22;36332;51.384;0.040;2023-04-01T03:50:02;10.00;99.90
27707;DHT22;36332;51.384;0.040;2023-04-01T03:52:29;10.00;99.90
27707;DHT22;36332;51.384;0.040;2023-04-01T03:54:57;10.00;99.90
27707;DHT22;36332;51.384;0.040;2023-04-01T03:57:25;10.00;99.90
27707;DHT22;36332;51.384;0.040;2023-04-01T03:59:57;10.00;99.90
27707;DHT22;36332;51.384;0.040;2023-04-01T04:02:25;10.00;99.90
27707;DHT22;36332;51.384;0.040;2023-04-01T04:04:53;10.00;99.90
27707;DHT22;36332;51.384;0.040;2023-04-01T04:07:20;10.00;99.90
27707;DHT22;36332;51.384;0.040;2023-04-01T04:10:02;10.00;99.90
27707;DHT22;36332;51.384;0.040;2023-04-01T04:12:30;10.00;99.90
27707;DHT22;36332;51.384;0.040;2023-04-01T04:14:57;10.00;99.90
27707;DHT22;36332;51.384;0.040;2023-04-01T04:17:25;9.90;99.90
27707;DHT22;36332;51.384;0.040;2023-04-01T04:19:53;9.90;99.90
27707;DHT22;36332;51.384;0.040;2023-04-01T04:22:21;9.90;99.90
27707;DHT22;36332;51.384;0.040;2023-04-01T04:24:49;9.90;99.90
27707;DHT22;36332;51.384;0.040;2023-04-01T04:27:17;9.90;99.90
27707;DHT22;36332;51.384;0.040;2023-04-01T04:29:55;9.90;99.90
27707;DHT22;36332;51.384;0.040;2023-04-01T04:32:22;9.80;99.90
27707;DHT22;36332;51.384;0.040;2023-04-01T04:34:50;9.80;99.90
27707;DHT22;36332;51.384;0.040;2023-04-01T04:37:19;9.80;99.90
27707;DHT22;36332;51.384;0.040;2023-04-01T04:39:47;9.80;99.90
27707;DHT22;36332;51.384;0.040;2023-04-01T04:42:14;9.80;99.90
27707;DHT22;36332;51.384;0.040;2023-04-01T04:44:42;9.80;99.90
27707;DHT22;36332;51.384;0.040;2023-04-01T04:47:11;9.80;99.90
27707;DHT22;36332;51.384;0.040;2023-04-01T04:49:38;9.70;99.90
27707;DHT22;36332;51.384;0.040;2023-04-01T04:52:09;9.70;99.90
27707;DHT22;36332;51.384;0.040;2023-04-01T04:54:36;9.70;99.90
27707;DHT22;36332;51.384;0.040;2023-04-01T04:57:05;9.70;99.90
27707;DHT22;36332;51.384;0.040;2023-04-01T04:59:39;9.70;99.90
27707;DHT22;36332;51.384;0.040;2023-04-01T05:02:23;9.70;99.90
27707;DHT22;36332;51.384;0.040;2023-04-01T05:04:51;9.70;99.90
27707;DHT22;36332;51.384;0.040;2023-04-01T05:07:18;9.70;99.90
27707;DHT22;36332;51.384;0.040;2023-04-01T05:09:47;9.70;99.90
27707;DHT22;36332;51.384;0.040;2023-04-01T05:12:15;9.60;99.90
27707;DHT22;36332;51.384;0.040;2023-04-01T05:14:56;9.60;99.90
27707;DHT22;36332;51.384;0.040;2023-04-01T05:17:24;9.60;99.90
27707;DHT22;36332;51.384;0.040;2023-04-01T05:19:52;9.60;99.90
27707;DHT22;36332;51.384;0.040;2023-04-01T05:22:20;9.70;99.90
27707;DHT22;36332;51.384;0.040;2023-04-01T05:24:48;9.60;99.90
27707;DHT22;36332;51.384;0.040;2023-04-01T05:27:16;9.60;99.90
27707;DHT22;36332;51.384;0.040;2023-04-01T05:29:44;9.60;99.90
27707;DHT22;36332;51.384;0.040;2023-04-01T05:32:31;9.60;99.90
27707;DHT22;36332;51.384;0.040;2023-04-01T05:34:59;9.50;99.90
27707;DHT22;36332;51.384;0.040;2023-04-01T05:37:26;9.60;99.90
27707;DHT22;36332;51.384;0.040;2023-04-01T05:39:54;9.60;99.90
27707;DHT22;36332;51.384;0.040;2023-04-01T05:42:22;9.60;99.90
27707;DHT22;36332;51.384;0.040;2023-04-01T05:44:50;9.60;99.90
27707;DHT22;36332;51.384;0.040;2023-04-01T05:47:37;9.60;99.90
27707;DHT22;36332;51.384;0.040;2023-04-01T05:50:05;9.60;99.90
27707;DHT22;36332;51.384;0.040;2023-04-01T05:52:32;9.60;99.90
27707;DHT22;36332;51.384;0.040;2023-04-01T05:55:00;9.60;99.90
27707;DHT22;36332;51.384;0.040;2023-04-01T05:57:27;9.60;99.90
27707;DHT22;36332;51.384;0.040;2023-04-01T05:59:55;9.60;99.90
27707;DHT22;36332;51.384;0.040;2023-04-01T06:02:23;9.60;99.90
27707;DHT22;36332;51.384;0.040;2023-04-01T06:05:00;9.70;99.90
27707;DHT22;36332;51.384;0.040;2023-04-01T06:07:29;9.60;99.90
27707;DHT22;36332;51.384;0.040;2023-04-01T06:09:57;9.70;99.90
27707;DHT22;36332;51.384;0.040;2023-04-01T06:12:49;9.70;99.90
27707;DHT22;36332;51.384;0.040;2023-04-01T06:15:32;9.70;99.90
27707;DHT22;36332;51.384;0.040;2023-04-01T06:28:48;9.70;99.90
27707;DHT22;36332;51.384;0.040;2023-04-01T06:31:25;9.70;99.90
27707;DHT22;36332;51.384;0.040;2023-04-01T06:37:09;9.80;99.90
27707;DHT22;36332;51.384;0.040;2023-04-01T06:48:19;9.90;99.90
27707;DHT22;36332;51.384;0.040;2023-04-01T06:51:51;9.90;99.90
27707;DHT22;36332;51.384;0.040;2023-04-01T07:00:53;9.70;99.90
27707;DHT22;36332;51.384;0.040;2023-04-01T07:03:29;9.70;99.90
27707;DHT22;36332;51.384;0.040;2023-04-01T07:06:02;9.70;99.90
27707;DHT22;36332;51.384;0.040;2023-04-01T07:08:36;9.70;99.90
27707;DHT22;36332;51.384;0.040;2023-04-01T07:11:06;9.70;99.90
27707;DHT22;36332;51.384;0.040;2023-04-01T07:13:55;9.60;99.90
27707;DHT22;36332;51.384;0.040;2023-04-01T07:16:36;9.70;99.90
27707;DHT22;36332;51.384;0.040;2023-04-01T07:22:09;9.80;99.90
27707;DHT22;36332;51.384;0.040;2023-04-01T07:25:15;9.90;99.90
27707;DHT22;36332;51.384;0.040;2023-04-01T07:27:51;9.90;99.90
27707;DHT22;36332;51.384;0.040;2023-04-01T07:30:22;9.90;99.90
27707;DHT22;36332;51.384;0.040;2023-04-01T07:33:05;10.00;99.90
27707;DHT22;36332;51.384;0.040;2023-04-01T07:35:47;10.00;99.90
27707;DHT22;36332;51.384;0.040;2023-04-01T07:46:54;10.00;99.90
27707;DHT22;36332;51.384;0.040;2023-04-01T07:54:31;9.90;99.90
27707;DHT22;36332;51.384;0.040;2023-04-01T08:05:22;9.80;99.90
27707;DHT22;36332;51.384;0.040;2023-04-01T08:08:10;9.80;99.90
27707;DHT22;36332;51.384;0.040;2023-04-01T08:14:37;9.80;99.90
27707;DHT22;36332;51.384;0.040;2023-04-01T08:23:05;9.70;99.90
27707;DHT22;36332;51.384;0.040;2023-04-01T08:25:44;9.70;99.90
27707;DHT22;36332;51.384;0.040;2023-04-01T08:28:54;9.70;99.90
27707;DHT22;36332;51.384;0.040;2023-04-01T08:31:37;9.70;99.90
27707;DHT22;36332;51.384;0.040;2023-04-01T08:34:17;9.70;99.90
27707;DHT22;36332;51.384;0.040;2023-04-01T08:36:54;9.70;99.90
27707;DHT22;36332;51.384;0.040;2023-04-01T08:39:34;9.90;99.90
27707;DHT22;36332;51.384;0.040;2023-04-01T09:09:08;10.50;99.90
27707;DHT22;36332;51.384;0.040;2023-04-01T09:15:05;10.50;99.90
27707;DHT22;36332;51.384;0.040;2023-04-01T09:18:47;10.50;99.90
27707;DHT22;36332;51.384;0.040;2023-04-01T09:27:18;10.40;99.90
27707;DHT22;36332;51.384;0.040;2023-04-01T09:37:38;10.40;99.90
27707;DHT22;36332;51.384;0.040;2023-04-01T09:52:26;10.70;99.90
27707;DHT22;36332;51.384;0.040;2023-04-01T10:23:02;11.00;99.90
27707;DHT22;36332;51.384;0.040;2023-04-01T10:25:57;11.00;99.90
27707;DHT22;36332;51.384;0.040;2023-04-01T10:43:35;11.20;99.90
27707;DHT22;36332;51.384;0.040;2023-04-01T10:55:48;11.40;99.90
27707;DHT22;36332;51.384;0.040;2023-04-01T11:19:46;11.10;99.90
27707;DHT22;36332;51.384;0.040;2023-04-01T11:39:33;11.10;99.90
27707;DHT22;36332;51.384;0.040;2023-04-01T11:42:45;11.10;99.90
27707;DHT22;36332;51.384;0.040;2023-04-01T12:00:00;11.50;99.90
27707;DHT22;36332;51.384;0.040;2023-04-01T12:05:34;12.90;99.90
27707;DHT22;36332;51.384;0.040;2023-04-01T12:11:20;11.50;99.90
27707;DHT22;36332;51.384;0.040;2023-04-01T12:13:54;11.50;99.90
27707;DHT22;36332;51.384;0.040;2023-04-01T12:30:14;12.20;99.90
27707;DHT22;36332;51.384;0.040;2023-04-01T12:39:02;12.00;99.90
27707;DHT22;36332;51.384;0.040;2023-04-01T12:55:35;11.90;99.90
27707;DHT22;36332;51.384;0.040;2023-04-01T13:03:46;11.80;99.90
27707;DHT22;36332;51.384;0.040;2023-04-01T13:17:26;12.00;99.90
27707;DHT22;36332;51.384;0.040;2023-04-01T13:25:47;12.60;99.90
27707;DHT22;36332;51.384;0.040;2023-04-01T13:28:59;12.80;99.90
27707;DHT22;36332;51.384;0.040;2023-04-01T13:42:59;13.40;99.90
27707;DHT22;36332;51.384;0.040;2023-04-01T13:45:50;13.40;99.90
27707;DHT22;36332;51.384;0.040;2023-04-01T13:51:30;13.40;99.90
27707;DHT22;36332;51.384;0.040;2023-04-01T13:57:33;13.80;99.90
27707;DHT22;36332;51.384;0.040;2023-04-01T14:03:48;13.80;99.90
27707;DHT22;36332;51.384;0.040;2023-04-01T14:09:30;13.80;99.90
27707;DHT22;36332;51.384;0.040;2023-04-01T14:12:09;13.50;99.90
27707;DHT22;36332;51.384;0.040;2023-04-01T14:31:43;13.70;99.90
27707;DHT22;36332;51.384;0.040;2023-04-01T14:39:54;13.60;99.90
27707;DHT22;36332;51.384;0.040;2023-04-01T14:45:46;13.60;99.90
27707;DHT22;36332;51.384;0.040;2023-04-01T14:51:39;13.40;99.90
27707;DHT22;36332;51.384;0.040;2023-04-01T14:56:43;13.40;99.90
27707;DHT22;36332;51.384;0.040;2023-04-01T14:59:25;13.40;99.90
27707;DHT22;36332;51.384;0.040;2023-04-01T15:02:26;13.30;99.90
27707;DHT22;36332;51.384;0.040;2023-04-01T15:05:32;13.30;99.90
27707;DHT22;36332;51.384;0.040;2023-04-01T15:08:12;13.20;99.90
27707;DHT22;36332;51.384;0.040;2023-04-01T15:18:39;11.20;99.90
27707;DHT22;36332;51.384;0.040;2023-04-01T15:21:18;12.60;99.90
27707;DHT22;36332;51.384;0.040;2023-04-01T15:24:56;12.60;99.90
27707;DHT22;36332;51.384;0.040;2023-04-01T15:38:34;12.00;99.90
27707;DHT22;36332;51.384;0.040;2023-04-01T15:41:16;12.00;99.90
27707;DHT22;36332;51.384;0.040;2023-04-01T15:43:48;11.90;99.90
27707;DHT22;36332;51.384;0.040;2023-04-01T15:49:14;11.80;99.90
27707;DHT22;36332;51.384;0.040;2023-04-01T15:51:53;11.80;99.90
27707;DHT22;36332;51.384;0.040;2023-04-01T16:00:17;11.70;99.90
27707;DHT22;36332;51.384;0.040;2023-04-01T16:03:23;11.70;99.90
27707;DHT22;36332;51.384;0.040;2023-04-01T16:16:39;11.60;99.90
27707;DHT22;36332;51.384;0.040;2023-04-01T16:19:37;11.50;99.90
27707;DHT22;36332;51.384;0.040;2023-04-01T16:22:11;11.40;99.90
27707;DHT22;36332;51.384;0.040;2023-04-01T16:24:48;11.40;99.90
27707;DHT22;36332;51.384;0.040;2023-04-01T16:27:35;11.40;99.90
27707;DHT22;36332;51.384;0.040;2023-04-01T16:30:22;11.30;99.90
27707;DHT22;36332;51.384;0.040;2023-04-01T16:32:54;11.30;99.90
27707;DHT22;36332;51.384;0.040;2023-04-01T16:38:47;11.10;99.90
27707;DHT22;36332;51.384;0.040;2023-04-01T16:41:25;11.00;99.90
27707;DHT22;36332;51.384;0.040;2023-04-01T16:44:09;11.00;99.90
27707;DHT22;36332;51.384;0.040;2023-04-01T16:46:39;10.90;99.90
27707;DHT22;36332;51.384;0.040;2023-04-01T16:57:10;10.80;99.90
27707;DHT22;36332;51.384;0.040;2023-04-01T17:00:03;10.70;99.90
27707;DHT22;36332;51.384;0.040;2023-04-01T17:11:18;10.60;99.90
27707;DHT22;36332;51.384;0.040;2023-04-01T17:17:20;10.60;99.90
27707;DHT22;36332;51.384;0.040;2023-04-01T17:22:38;10.60;99.90
27707;DHT22;36332;51.384;0.040;2023-04-01T17:35:58;10.50;99.90
27707;DHT22;36332;51.384;0.040;2023-04-01T17:52:39;10.50;99.90
27707;DHT22;36332;51.384;0.040;2023-04-01T18:08:56;10.40;99.90
27707;DHT22;36332;51.384;0.040;2023-04-01T18:11:53;10.40;99.90
27707;DHT22;36332;51.384;0.040;2023-04-01T18:17:24;10.30;99.90
27707;DHT22;36332;51.384;0.040;2023-04-01T18:22:48;10.40;99.90
27707;DHT22;36332;51.384;0.040;2023-04-01T18:26:03;10.30;99.90
27707;DHT22;36332;51.384;0.040;2023-04-01T18:28:54;10.30;99.90
27707;DHT22;36332;51.384;0.040;2023-04-01T18:31:35;10.30;99.90
27707;DHT22;36332;51.384;0.040;2023-04-01T18:34:08;10.30;99.90
27707;DHT22;36332;51.384;0.040;2023-04-01T18:36:49;10.30;99.90
27707;DHT22;36332;51.384;0.040;2023-04-01T18:39:23;10.30;99.90
27707;DHT22;36332;51.384;0.040;2023-04-01T18:44:51;10.30;99.90
27707;DHT22;36332;51.384;0.040;2023-04-01T18:55:54;10.30;99.90
27707;DHT22;36332;51.384;0.040;2023-04-01T18:58:37;10.30;99.90
27707;DHT22;36332;51.384;0.040;2023-04-01T19:04:19;10.20;99.90
27707;DHT22;36332;51.384;0.040;2023-04-01T19:06:56;10.30;99.90
27707;DHT22;36332;51.384;0.040;2023-04-01T19:09:28;10.30;99.90
27707;DHT22;36332;51.384;0.040;2023-04-01T19:15:24;10.20;99.90
27707;DHT22;36332;51.384;0.040;2023-04-01T19:27:29;10.10;99.90
27707;DHT22;36332;51.384;0.040;2023-04-01T19:37:25;9.90;99.90
27707;DHT22;36332;51.384;0.040;2023-04-01T19:40:25;9.80;99.90
27707;DHT22;36332;51.384;0.040;2023-04-01T19:43:06;9.70;99.90
27707;DHT22;36332;51.384;0.040;2023-04-01T19:46:25;9.50;99.90
27707;DHT22;36332;51.384;0.040;2023-04-01T19:48:55;9.50;99.90
27707;DHT22;36332;51.384;0.040;2023-04-01T19:51:34;9.40;99.90
27707;DHT22;36332;51.384;0.040;2023-04-01T19:54:28;9.40;99.90
27707;DHT22;36332;51.384;0.040;2023-04-01T19:59:56;9.30;99.90
27707;DHT22;36332;51.384;0.040;2023-04-01T20:02:39;9.30;99.90
27707;DHT22;36332;51.384;0.040;2023-04-01T20:05:50;9.30;99.90
27707;DHT22;36332;51.384;0.040;2023-04-01T20:14:24;9.20;99.90
27707;DHT22;36332;51.384;0.040;2023-04-01T20:17:01;9.20;99.90
27707;DHT22;36332;51.384;0.040;2023-04-01T20:19:40;9.20;99.90
27707;DHT22;36332;51.384;0.040;2023-04-01T20:25:26;9.20;99.90
27707;DHT22;36332;51.384;0.040;2023-04-01T20:28:14;9.20;99.90
27707;DHT22;36332;51.384;0.040;2023-04-01T20:42:27;9.20;99.90
27707;DHT22;36332;51.384;0.040;2023-04-01T20:45:38;9.10;99.90
27707;DHT22;36332;51.384;0.040;2023-04-01T20:51:18;9.10;99.90
27707;DHT22;36332;51.384;0.040;2023-04-01T20:54:02;9.10;99.90
27707;DHT22;36332;51.384;0.040;2023-04-01T21:02:40;9.10;99.90
27707;DHT22;36332;51.384;0.040;2023-04-01T21:08:53;9.10;99.90
27707;DHT22;36332;51.384;0.040;2023-04-01T21:11:50;9.00;99.90
27707;DHT22;36332;51.384;0.040;2023-04-01T21:25:00;8.90;99.90
27707;DHT22;36332;51.384;0.040;2023-04-01T21:31:00;8.90;99.90
27707;DHT22;36332;51.384;0.040;2023-04-01T21:41:54;8.80;99.90
27707;DHT22;36332;51.384;0.040;2023-04-01T21:44:52;8.80;99.90
27707;DHT22;36332;51.384;0.040;2023-04-01T21:50:47;8.80;99.90
27707;DHT22;36332;51.384;0.040;2023-04-01T22:05:25;8.80;99.90
27707;DHT22;36332;51.384;0.040;2023-04-01T22:11:42;8.80;99.90
27707;DHT22;36332;51.384;0.040;2023-04-01T22:14:20;8.80;99.90
27707;DHT22;36332;51.384;0.040;2023-04-01T22:20:28;8.70;99.90
27707;DHT22;36332;51.384;0.040;2023-04-01T22:23:20;8.70;99.90
27707;DHT22;36332;51.384;0.040;2023-04-01T22:26:10;8.70;99.90
27707;DHT22;36332;51.384;0.040;2023-04-01T22:31:59;8.70;99.90
27707;DHT22;36332;51.384;0.040;2023-04-01T22:34:47;8.70;99.90
27707;DHT22;36332;51.384;0.040;2023-04-01T22:40:25;8.70;99.90
27707;DHT22;36332;51.384;0.040;2023-04-01T22:42:56;8.70;99.90
27707;DHT22;36332;51.384;0.040;2023-04-01T22:53:55;8.70;99.90
27707;DHT22;36332;51.384;0.040;2023-04-01T22:56:37;8.60;99.90
27707;DHT22;36332;51.384;0.040;2023-04-01T22:59:14;8.70;99.90
27707;DHT22;36332;51.384;0.040;2023-04-01T23:01:58;8.70;99.90
27707;DHT22;36332;51.384;0.040;2023-04-01T23:04:33;8.70;99.90
27707;DHT22;36332;51.384;0.040;2023-04-01T23:10:15;8.70;99.90
27707;DHT22;36332;51.384;0.040;2023-04-01T23:12:44;8.70;99.90
27707;DHT22;36332;51.384;0.040;2023-04-01T23:15:14;8.70;99.90
27707;DHT22;36332;51.384;0.040;2023-04-01T23:18:03;8.70;99.90
27707;DHT22;36332;51.384;0.040;2023-04-01T23:25:58;8.70;99.90
27707;DHT22;36332;51.384;0.040;2023-04-01T23:28:47;8.60;99.90
27707;DHT22;36332;51.384;0.040;2023-04-01T23:31:44;8.60;99.90
27707;DHT22;36332;51.384;0.040;2023-04-01T23:34:30;8.60;99.90
27707;DHT22;36332;51.384;0.040;2023-04-01T23:37:11;8.60;99.90
27707;DHT22;36332;51.384;0.040;2023-04-01T23:39:43;8.50;99.90
27707;DHT22;36332;51.384;0.040;2023-04-01T23:42:23;8.50;99.90
27707;DHT22;36332;51.384;0.040;2023-04-01T23:44:57;8.40;99.90
27707;DHT22;36332;51.384;0.040;2023-04-01T23:47:33;8.40;99.90
27707;DHT22;36332;51.384;0.040;2023-04-01T23:50:18;8.40;99.90
27707;DHT22;36332;51.384;0.040;2023-04-01T23:52:51;8.40;99.90
27707;DHT22;36332;51.384;0.040;2023-04-01T23:55:27;8.40;99.90
